Time;durP1;ratioP1;P1;durP2;ratioP2;P2;SDS_P1;SDS_P2;PMS_P1;PMS_P2;Temp;Humidity;BMP_temperature;BMP_pressure;BME280_temperature;BME280_humidity;BME280_pressure;Samples;Min_cycle;Max_cycle;Signal;HPM_P1;HPM_P2
2022/08/09 00:01:47;;;;;;;6.92;5.55;;;;;;;18.63;100.00;101086.47;1729868;83;21536;-42
2022/08/09 00:04:20;;;;;;;7.35;5.17;;;;;;;18.63;100.00;101087.78;1729397;82;20995;-42
2022/08/09 00:06:48;;;;;;;9.08;5.40;;;;;;;18.64;100.00;101082.93;1729543;83;20963;-42
2022/08/09 00:09:16;;;;;;;6.70;5.35;;;;;;;18.65;100.00;101082.45;1729431;83;21284;-42
2022/08/09 00:11:43;;;;;;;14.80;5.65;;;;;;;18.64;100.00;101080.75;1729316;83;20923;-42
2022/08/09 00:14:11;;;;;;;12.95;5.15;;;;;;;18.63;100.00;101079.91;1729726;83;20927;-42
2022/08/09 00:16:38;;;;;;;6.75;5.55;;;;;;;18.62;100.00;101078.66;1729605;83;20948;-42
2022/08/09 00:19:05;;;;;;;6.97;5.90;;;;;;;18.61;100.00;101074.33;1729430;83;21003;-42
2022/08/09 00:21:33;;;;;;;7.22;6.00;;;;;;;18.63;100.00;101073.80;1729564;83;21164;-42
2022/08/09 00:24:00;;;;;;;6.80;5.85;;;;;;;18.62;100.00;101075.59;1729474;83;20912;-42
2022/08/09 00:26:28;;;;;;;8.15;5.92;;;;;;;18.61;100.00;101083.06;1729410;81;20951;-42
2022/08/09 00:28:55;;;;;;;8.80;6.25;;;;;;;18.60;100.00;101080.49;1729616;83;21422;-42
2022/08/09 00:31:23;;;;;;;12.47;6.97;;;;;;;18.58;100.00;101082.33;1729525;83;20888;-42
2022/08/09 00:33:51;;;;;;;8.45;6.60;;;;;;;18.56;100.00;101084.16;1729542;83;21259;-42
2022/08/09 00:36:19;;;;;;;10.60;6.65;;;;;;;18.53;100.00;101084.69;1729474;83;20987;-42
2022/08/09 00:38:45;;;;;;;9.83;6.55;;;;;;;18.53;100.00;101081.20;1728466;83;21532;-42
2022/08/09 00:41:13;;;;;;;13.43;7.20;;;;;;;18.52;100.00;101081.67;1698641;84;21070;-42
2022/08/09 00:43:41;;;;;;;9.88;6.58;;;;;;;18.52;100.00;101079.05;1699000;84;21583;-42
2022/08/09 00:46:08;;;;;;;9.08;6.25;;;;;;;18.52;100.00;101083.43;1695820;84;21175;-42
2022/08/09 00:48:36;;;;;;;7.97;6.35;;;;;;;18.53;100.00;101086.45;1689674;84;20959;-42
2022/08/09 00:51:05;;;;;;;15.60;6.53;;;;;;;18.55;100.00;101083.77;1689140;84;21011;-42
2022/08/09 00:53:35;;;;;;;8.60;6.10;;;;;;;18.57;100.00;101086.73;1688987;84;20959;-42
2022/08/09 00:56:05;;;;;;;7.15;6.42;;;;;;;18.57;100.00;101084.12;1689626;84;20998;-42
2022/08/09 00:58:34;;;;;;;12.78;6.92;;;;;;;18.58;100.00;101082.33;1688821;84;21262;-42
2022/08/09 01:01:02;;;;;;;8.15;6.28;;;;;;;18.57;100.00;101076.25;1689105;85;21045;-42
2022/08/09 01:03:48;;;;;;;8.88;6.87;;;;;;;18.56;100.00;101073.20;1689316;85;20963;-42
2022/08/09 01:06:37;;;;;;;7.67;6.60;;;;;;;18.56;100.00;101080.23;1661556;85;20959;-42
2022/08/09 01:09:27;;;;;;;8.08;6.45;;;;;;;18.50;100.00;101078.27;1689143;85;20939;-42
2022/08/09 01:12:16;;;;;;;10.55;6.12;;;;;;;18.45;100.00;101076.75;1689055;85;21160;-42
2022/08/09 01:14:59;;;;;;;11.25;6.33;;;;;;;18.40;100.00;101076.09;1688883;85;21556;-42
2022/08/09 01:17:37;;;;;;;12.47;6.25;;;;;;;18.37;100.00;101073.12;1691342;84;20860;-42
2022/08/09 01:20:08;;;;;;;7.37;6.62;;;;;;;18.33;100.00;101071.11;1699093;84;21600;-43
2022/08/09 01:23:05;;;;;;;10.85;6.80;;;;;;;18.29;100.00;101069.51;1698742;84;21045;-42
2022/08/09 01:25:53;;;;;;;6.78;5.85;;;;;;;18.24;100.00;101075.41;1698757;83;21114;-42
2022/08/09 01:28:20;;;;;;;8.25;6.08;;;;;;;18.20;100.00;101079.06;1670858;84;21065;-42
2022/08/09 01:30:47;;;;;;;10.43;6.03;;;;;;;18.17;100.00;101081.34;1698806;84;21042;-42
2022/08/09 01:33:15;;;;;;;10.63;5.87;;;;;;;18.15;100.00;101081.03;1693425;84;21073;-42
2022/08/09 01:35:49;;;;;;;6.78;6.17;;;;;;;18.13;100.00;101074.53;1689144;83;20987;-42
2022/08/09 01:38:25;;;;;;;6.95;6.33;;;;;;;18.11;100.00;101075.52;1692568;84;21828;-42
2022/08/09 01:40:57;;;;;;;11.85;6.25;;;;;;;18.08;100.00;101082.59;1698628;82;20967;-42
2022/08/09 01:43:24;;;;;;;15.28;6.58;;;;;;;18.07;100.00;101077.41;1699204;84;20927;-42
2022/08/09 01:45:52;;;;;;;10.50;6.17;;;;;;;18.04;100.00;101079.67;1698990;84;20952;-42
2022/08/09 01:48:19;;;;;;;8.58;5.78;;;;;;;18.02;100.00;101077.58;1696196;84;21013;-42
2022/08/09 01:50:49;;;;;;;6.95;6.22;;;;;;;17.99;100.00;101076.84;1689179;85;21194;-42
2022/08/09 01:53:16;;;;;;;12.82;6.25;;;;;;;17.96;100.00;101083.03;1689089;85;21449;-42
2022/08/09 01:55:44;;;;;;;7.08;5.72;;;;;;;17.93;100.00;101080.54;1689016;85;20983;-42
2022/08/09 01:58:13;;;;;;;8.08;6.28;;;;;;;17.90;100.00;101087.21;1661393;85;20991;-43
2022/08/09 02:00:41;;;;;;;9.13;5.90;;;;;;;17.88;100.00;101090.34;1661573;83;21445;-42
2022/08/09 02:03:08;;;;;;;6.35;5.15;;;;;;;17.83;100.00;101082.66;1690531;84;21265;-42
2022/08/09 02:05:36;;;;;;;6.25;5.65;;;;;;;17.81;100.00;101085.80;1698716;84;21003;-42
2022/08/09 02:08:07;;;;;;;12.50;5.47;;;;;;;17.78;100.00;101086.77;1698859;84;20991;-42
2022/08/09 02:10:41;;;;;;;6.30;5.37;;;;;;;17.74;100.00;101081.25;1698668;84;21545;-42
2022/08/09 02:13:11;;;;;;;8.38;5.03;;;;;;;17.72;100.00;101090.93;1690522;84;22336;-42
2022/08/09 02:15:42;;;;;;;6.47;4.70;;;;;;;17.71;100.00;101091.84;1688941;84;21263;-42
2022/08/09 02:18:08;;;;;;;6.20;5.35;;;;;;;17.70;100.00;101098.47;1689193;85;21050;-42
2022/08/09 02:20:40;;;;;;;7.03;5.65;;;;;;;17.67;100.00;101093.72;1688986;83;21065;-42
2022/08/09 02:23:14;;;;;;;8.68;5.22;;;;;;;17.68;100.00;101093.27;1688649;85;21023;-42
2022/08/09 02:25:41;;;;;;;9.18;5.22;;;;;;;17.69;100.00;101099.38;1689112;84;20995;-42
2022/08/09 02:28:34;;;;;;;7.45;5.15;;;;;;;17.71;100.00;101088.39;1689383;83;21082;-42
2022/08/09 02:31:24;;;;;;;9.45;5.60;;;;;;;17.72;100.00;101090.93;1666633;85;21120;-42
2022/08/09 02:33:54;;;;;;;11.30;5.05;;;;;;;17.72;100.00;101100.09;1689052;84;20908;-42
2022/08/09 02:36:25;;;;;;;8.33;5.20;;;;;;;17.72;100.00;101101.87;1688956;85;21483;-42
2022/08/09 02:38:54;;;;;;;5.85;5.25;;;;;;;17.71;100.00;101101.01;1689108;85;20971;-42
2022/08/09 02:41:43;;;;;;;5.87;5.30;;;;;;;17.71;100.00;101105.41;1708766;82;21152;-42
2022/08/09 02:45:41;;;;;;;8.48;5.70;;;;;;;17.77;100.00;101106.47;1815882;79;22669;-42
2022/08/09 02:48:13;;;;;;;7.53;5.30;;;;;;;17.72;100.00;101108.42;1787877;80;20955;-42
2022/08/09 02:50:50;;;;;;;7.95;5.50;;;;;;;17.72;100.00;101105.33;1789032;80;21246;-42
2022/08/09 02:53:37;;;;;;;16.17;5.58;;;;;;;17.74;100.00;101110.52;1789122;80;20927;-42
2022/08/09 02:56:05;;;;;;;10.15;5.72;;;;;;;17.74;100.00;101107.43;1789117;80;20924;-42
2022/08/09 02:58:32;;;;;;;6.50;5.80;;;;;;;17.75;100.00;101113.06;1758637;80;20928;-42
2022/08/09 03:00:59;;;;;;;6.12;5.45;;;;;;;17.78;100.00;101114.25;1755793;80;21014;-42
2022/08/09 03:03:27;;;;;;;7.17;5.40;;;;;;;17.79;100.00;101113.34;1784064;80;21795;-42
2022/08/09 03:05:56;;;;;;;7.30;5.10;;;;;;;17.81;100.00;101115.47;1783775;80;21338;-42
2022/08/09 03:08:23;;;;;;;6.78;6.08;;;;;;;17.85;100.00;101115.34;1784008;80;21326;-42
2022/08/09 03:10:50;;;;;;;7.62;5.65;;;;;;;17.86;100.00;101113.96;1784027;80;20951;-42
2022/08/09 03:13:20;;;;;;;8.43;6.03;;;;;;;17.91;100.00;101117.72;1756394;80;21018;-42
2022/08/09 03:15:47;;;;;;;9.80;5.50;;;;;;;17.93;100.00;101116.73;1783937;80;22040;-43
2022/08/09 03:18:14;;;;;;;6.37;5.78;;;;;;;17.97;100.00;101118.78;1786976;80;21042;-42
2022/08/09 03:20:41;;;;;;;6.87;5.87;;;;;;;17.98;100.00;101123.11;1758572;80;20979;-42
2022/08/09 03:23:10;;;;;;;6.33;5.80;;;;;;;18.01;100.00;101119.53;1789099;80;20944;-42
2022/08/09 03:25:37;;;;;;;7.80;5.30;;;;;;;18.04;100.00;101118.13;1788146;80;20944;-42
2022/08/09 03:28:04;;;;;;;5.87;5.37;;;;;;;18.07;100.00;101118.87;1760396;81;21233;-42
2022/08/09 03:30:33;;;;;;;6.37;5.50;;;;;;;18.10;100.00;101120.50;1760294;81;20995;-42
2022/08/09 03:33:02;;;;;;;9.80;6.17;;;;;;;18.16;100.00;101118.09;1745861;81;20987;-42
2022/08/09 03:35:29;;;;;;;7.90;5.97;;;;;;;18.18;100.00;101120.20;1730377;83;20983;-43
2022/08/09 03:37:56;;;;;;;6.35;5.75;;;;;;;18.21;100.00;101123.56;1701716;83;21386;-42
2022/08/09 03:40:23;;;;;;;12.73;6.28;;;;;;;18.26;100.00;101123.36;1701656;83;21249;-42
2022/08/09 03:42:50;;;;;;;7.35;5.92;;;;;;;18.30;100.00;101122.78;1730244;83;20983;-42
2022/08/09 03:45:17;;;;;;;9.53;6.08;;;;;;;18.36;100.00;101117.28;1720378;82;21465;-42
2022/08/09 03:47:44;;;;;;;8.98;6.10;;;;;;;18.47;100.00;101128.64;1717619;82;20952;-42
2022/08/09 03:50:10;;;;;;;8.85;5.87;;;;;;;18.55;100.00;101121.30;1717678;83;21343;-42
2022/08/09 03:52:41;;;;;;;6.62;6.03;;;;;;;18.66;100.00;101123.04;1707850;82;21249;-42
2022/08/09 03:55:10;;;;;;;5.95;5.50;;;;;;;18.75;100.00;101130.11;1747111;80;20972;-42
2022/08/09 03:57:36;;;;;;;6.22;5.60;;;;;;;18.82;100.00;101130.27;1747260;82;20971;-42
2022/08/09 04:00:05;;;;;;;6.10;5.60;;;;;;;18.91;100.00;101131.18;1746708;82;22310;-42
2022/08/09 04:02:35;;;;;;;8.03;6.17;;;;;;;19.04;100.00;101128.05;1710222;83;20998;-42
2022/08/09 04:05:02;;;;;;;6.08;5.47;;;;;;;19.24;100.00;101121.47;1705238;84;21027;-42
2022/08/09 04:07:29;;;;;;;8.75;5.87;;;;;;;19.38;100.00;101124.78;1705299;84;21008;-42
2022/08/09 04:09:57;;;;;;;7.83;5.30;;;;;;;19.50;100.00;101127.31;1705332;84;21546;-43
2022/08/09 04:12:42;;;;;;;5.83;5.28;;;;;;;19.66;100.00;101123.52;1696848;84;21008;-42
2022/08/09 04:15:09;;;;;;;7.80;5.45;;;;;;;19.88;100.00;101123.84;1677406;84;21013;-42
2022/08/09 04:17:36;;;;;;;6.72;5.90;;;;;;;20.14;100.00;101119.62;1676839;85;21094;-43
2022/08/09 04:20:05;;;;;;;8.65;6.17;;;;;;;20.30;100.00;101121.87;1676925;84;20917;-43
2022/08/09 04:22:32;;;;;;;9.50;5.95;;;;;;;20.46;100.00;101118.50;1657625;85;20933;-43
2022/08/09 04:25:00;;;;;;;6.22;5.60;;;;;;;20.63;100.00;101113.26;1676918;85;21620;-43
2022/08/09 04:27:26;;;;;;;6.42;5.42;;;;;;;20.80;100.00;101112.88;1677002;85;20949;-43
2022/08/09 04:29:54;;;;;;;8.05;6.00;;;;;;;21.02;100.00;101118.34;1676883;85;21089;-43
2022/08/09 04:32:21;;;;;;;6.55;5.70;;;;;;;21.20;100.00;101104.68;1678658;84;21059;-43
2022/08/09 04:34:48;;;;;;;5.55;5.12;;;;;;;21.23;100.00;101109.81;1677406;84;21542;-42
2022/08/09 04:37:15;;;;;;;7.25;5.47;;;;;;;21.24;100.00;101104.93;1676848;84;21454;-42
2022/08/09 04:39:42;;;;;;;9.20;5.40;;;;;;;21.29;100.00;101105.53;1676984;84;20961;-43
2022/08/09 04:42:08;;;;;;;7.15;5.10;;;;;;;21.36;100.00;101108.69;1678892;84;21021;-43
2022/08/09 04:44:36;;;;;;;7.25;4.72;;;;;;;21.44;100.00;101102.98;1680440;84;20920;-43
2022/08/09 04:47:03;;;;;;;8.65;5.17;;;;;;;21.57;100.00;101105.80;1687629;85;21561;-43
2022/08/09 04:49:32;;;;;;;7.08;4.80;;;;;;;21.75;100.00;101103.51;1687378;85;21489;-43
2022/08/09 04:51:59;;;;;;;7.35;4.50;;;;;;;21.95;100.00;101097.11;1687576;84;21047;-43
2022/08/09 04:54:26;;;;;;;12.82;5.00;;;;;;;22.04;100.00;101097.06;1689381;83;21127;-43
2022/08/09 04:56:53;;;;;;;6.60;4.60;;;;;;;22.21;100.00;101101.37;1687509;85;20945;-43
2022/08/09 04:59:19;;;;;;;5.33;4.92;;;;;;;22.35;100.00;101102.38;1687472;85;20996;-43
2022/08/09 05:01:47;;;;;;;10.43;5.00;;;;;;;22.46;100.00;101111.84;1693065;83;20956;-43
2022/08/09 05:04:14;;;;;;;7.25;4.95;;;;;;;22.57;100.00;101120.45;1687834;83;20984;-43
2022/08/09 05:06:41;;;;;;;10.05;4.90;;;;;;;22.70;100.00;101113.98;1687795;83;21228;-43
2022/08/09 05:09:08;;;;;;;6.50;4.72;;;;;;;22.91;100.00;101111.86;1703825;83;20999;-43
2022/08/09 05:11:35;;;;;;;7.53;5.08;;;;;;;23.06;100.00;101107.89;1714546;83;21004;-43
2022/08/09 05:14:03;;;;;;;6.47;4.62;;;;;;;23.19;100.00;101110.63;1714592;83;21550;-43
2022/08/09 05:16:30;;;;;;;6.70;4.45;;;;;;;23.31;100.00;101114.34;1709480;83;20988;-43
2022/08/09 05:18:57;;;;;;;5.72;5.05;;;;;;;23.51;100.00;101105.19;1665811;83;21195;-43
2022/08/09 05:21:24;;;;;;;6.70;5.05;;;;;;;23.67;100.00;101116.95;1714592;83;20961;-43
2022/08/09 05:23:51;;;;;;;4.60;4.20;;;;;;;23.82;100.00;101113.80;1714699;83;21541;-43
2022/08/09 05:26:18;;;;;;;7.42;4.35;;;;;;;23.97;98.77;101119.39;1689126;83;20889;-43
2022/08/09 05:28:45;;;;;;;8.93;4.72;;;;;;;24.08;97.78;101112.13;1684840;83;21066;-43
2022/08/09 05:31:13;;;;;;;5.37;4.85;;;;;;;24.16;95.82;101105.50;1687648;83;21114;-43
2022/08/09 05:33:40;;;;;;;5.58;5.05;;;;;;;24.12;95.09;101115.42;1687774;83;20948;-43
2022/08/09 05:36:07;;;;;;;10.98;4.70;;;;;;;24.06;93.80;101116.66;1687797;83;20944;-43
2022/08/09 05:38:35;;;;;;;6.83;4.83;;;;;;;23.86;95.57;101116.61;1687803;83;21066;-43
2022/08/09 05:41:02;;;;;;;7.92;4.85;;;;;;;23.77;94.82;101108.80;1687723;83;20960;-43
2022/08/09 05:43:34;;;;;;;5.00;4.22;;;;;;;23.70;95.77;101102.22;1687812;83;21031;-43
2022/08/09 05:45:59;;;;;;;5.37;4.97;;;;;;;23.79;96.12;101109.55;1687551;83;21037;-43
2022/08/09 05:48:26;;;;;;;11.75;4.78;;;;;;;23.88;96.05;101111.24;1687805;83;20968;-43
2022/08/09 05:50:53;;;;;;;4.95;4.55;;;;;;;23.93;95.80;101109.14;1687615;83;20941;-43
2022/08/09 05:53:20;;;;;;;5.85;4.67;;;;;;;23.98;95.64;101112.33;1685117;83;21573;-43
2022/08/09 05:55:47;;;;;;;8.88;4.72;;;;;;;24.06;96.12;101099.97;1687874;83;21238;-43
2022/08/09 05:58:14;;;;;;;7.12;4.20;;;;;;;24.11;95.25;101103.98;1687587;83;21609;-43
2022/08/09 06:00:40;;;;;;;6.50;4.75;;;;;;;24.23;95.64;101098.85;1687845;83;21012;-43
2022/08/09 06:03:08;;;;;;;4.75;4.33;;;;;;;24.30;94.06;101102.77;1684736;83;21056;-43
2022/08/09 06:05:35;;;;;;;6.97;4.75;;;;;;;24.24;91.58;101094.77;1687745;83;20980;-43
2022/08/09 06:08:02;;;;;;;5.45;4.95;;;;;;;24.21;91.93;101094.14;1684018;83;21220;-43
2022/08/09 06:10:38;;;;;;;6.80;4.37;;;;;;;24.24;91.44;101093.45;1687936;83;20998;-43
2022/08/09 06:13:11;;;;;;;6.75;4.50;;;;;;;24.29;92.39;101093.14;1714424;83;20983;-43
2022/08/09 06:15:38;;;;;;;5.12;4.72;;;;;;;24.22;91.93;101095.34;1714953;83;21513;-43
2022/08/09 06:18:05;;;;;;;6.65;4.95;;;;;;;24.21;91.70;101096.78;1709793;83;21031;-43
2022/08/09 06:20:32;;;;;;;7.47;4.55;;;;;;;24.13;92.83;101090.67;1715923;83;21240;-42
2022/08/09 06:22:59;;;;;;;5.42;4.70;;;;;;;24.07;92.29;101097.20;1702390;83;21015;-42
2022/08/09 06:25:29;;;;;;;6.50;4.83;;;;;;;24.09;92.70;101086.05;1695912;83;20917;-43
2022/08/09 06:27:57;;;;;;;5.30;4.72;;;;;;;24.25;93.17;101091.66;1661977;85;21525;-43
2022/08/09 06:30:24;;;;;;;12.88;5.22;;;;;;;24.41;91.72;101089.33;1687220;85;21058;-43
2022/08/09 06:32:51;;;;;;;9.60;4.67;;;;;;;24.44;90.95;101097.05;1687365;84;21249;-42
2022/08/09 06:35:19;;;;;;;6.03;4.50;;;;;;;24.51;90.72;101093.89;1687162;84;21025;-42
2022/08/09 06:37:46;;;;;;;5.60;4.25;;;;;;;24.66;89.74;101088.03;1701530;83;20928;-42
2022/08/09 06:40:13;;;;;;;5.70;4.80;;;;;;;24.79;89.73;101093.36;1691363;83;20936;-42
2022/08/09 06:42:40;;;;;;;7.40;4.55;;;;;;;24.90;89.87;101095.27;1690035;83;20944;-42
2022/08/09 06:45:09;;;;;;;4.80;4.37;;;;;;;25.12;89.33;101105.66;1699026;82;21264;-42
2022/08/09 06:47:36;;;;;;;5.95;4.80;;;;;;;25.18;85.87;101107.91;1705213;84;20960;-41
2022/08/09 06:50:04;;;;;;;5.62;4.90;;;;;;;25.09;85.85;101105.88;1673613;84;20993;-42
2022/08/09 06:52:31;;;;;;;6.22;4.22;;;;;;;25.06;86.78;101112.72;1684981;84;20922;-42
2022/08/09 06:54:58;;;;;;;7.75;4.62;;;;;;;25.04;85.90;101108.88;1705026;84;20984;-42
2022/08/09 06:57:26;;;;;;;5.67;4.20;;;;;;;25.15;84.36;101116.53;1692959;84;21238;-42
2022/08/09 06:59:53;;;;;;;11.35;4.40;;;;;;;25.34;84.48;101106.34;1691858;84;20989;-42
2022/08/09 07:02:20;;;;;;;5.05;4.45;;;;;;;25.51;82.15;101109.14;1694090;84;20961;-42
2022/08/09 07:04:46;;;;;;;13.03;4.83;;;;;;;25.68;82.01;101101.78;1705145;84;21052;-42
2022/08/09 07:07:14;;;;;;;8.63;4.53;;;;;;;25.80;82.05;101094.25;1705106;84;21499;-42
2022/08/09 07:09:43;;;;;;;4.55;4.00;;;;;;;25.98;81.65;101099.16;1704794;84;21029;-42
2022/08/09 07:12:11;;;;;;;5.97;4.05;;;;;;;26.19;81.90;101094.59;1705047;84;20957;-42
2022/08/09 07:14:39;;;;;;;5.35;4.62;;;;;;;26.32;79.34;101105.95;1705134;82;21048;-42
2022/08/09 07:17:06;;;;;;;6.92;4.35;;;;;;;26.37;77.89;101099.81;1705199;84;21008;-42
2022/08/09 07:19:33;;;;;;;4.78;4.00;;;;;;;26.45;78.55;101096.58;1705184;84;21024;-42
2022/08/09 07:22:00;;;;;;;4.60;4.17;;;;;;;26.58;77.48;101104.95;1705298;84;21229;-42
2022/08/09 07:24:29;;;;;;;7.75;4.40;;;;;;;26.68;80.69;101102.80;1705254;84;20921;-42
2022/08/09 07:26:57;;;;;;;5.35;4.85;;;;;;;26.64;77.37;101099.99;1705194;84;20953;-42
2022/08/09 07:29:24;;;;;;;6.92;4.20;;;;;;;26.48;78.00;101107.45;1705230;84;20973;-42
2022/08/09 07:31:51;;;;;;;4.75;4.35;;;;;;;26.55;78.51;101112.66;1705307;84;21557;-43
2022/08/09 07:34:18;;;;;;;10.13;4.25;;;;;;;26.73;80.01;101116.20;1705315;84;21166;-42
2022/08/09 07:36:44;;;;;;;4.15;3.90;;;;;;;26.90;76.84;101113.59;1705101;84;21458;-43
2022/08/09 07:39:11;;;;;;;10.35;4.20;;;;;;;26.98;75.66;101112.50;1705374;84;21008;-42
2022/08/09 07:41:38;;;;;;;8.88;3.55;;;;;;;26.99;74.54;101117.34;1705381;84;20948;-42
2022/08/09 07:44:05;;;;;;;9.08;4.10;;;;;;;26.98;73.00;101119.64;1705338;84;20917;-42
2022/08/09 07:46:32;;;;;;;3.75;3.52;;;;;;;27.12;73.36;101118.06;1719360;83;21251;-42
2022/08/09 07:48:59;;;;;;;4.30;3.17;;;;;;;27.35;69.52;101116.73;1724182;83;20888;-42
2022/08/09 07:51:27;;;;;;;5.45;2.85;;;;;;;27.44;67.61;101110.70;1723886;83;20928;-43
2022/08/09 07:53:54;;;;;;;6.03;3.17;;;;;;;27.46;66.72;101111.41;1708411;84;21065;-44
2022/08/09 07:56:22;;;;;;;5.40;2.90;;;;;;;27.60;67.19;101112.13;1724495;82;20995;-42
2022/08/09 07:58:49;;;;;;;5.00;2.95;;;;;;;27.71;67.85;101100.16;1724082;83;21536;-42
2022/08/09 08:01:15;;;;;;;13.53;3.15;;;;;;;27.77;65.36;101108.95;1724030;83;21025;-44
2022/08/09 08:03:42;;;;;;;11.75;3.22;;;;;;;27.68;65.92;101111.87;1724227;83;21004;-42
2022/08/09 08:06:09;;;;;;;9.80;2.90;;;;;;;27.68;65.38;101107.06;1724232;81;20864;-42
2022/08/09 08:08:36;;;;;;;6.30;2.77;;;;;;;27.61;66.64;101107.17;1723825;83;21050;-43
2022/08/09 08:11:04;;;;;;;6.08;3.42;;;;;;;27.76;67.53;101102.42;1724318;83;21134;-43
2022/08/09 08:13:32;;;;;;;10.80;2.92;;;;;;;28.03;66.04;101100.65;1697390;83;20920;-43
2022/08/09 08:15:59;;;;;;;5.50;3.17;;;;;;;28.17;64.25;101092.88;1724174;83;20958;-43
2022/08/09 08:18:27;;;;;;;3.98;3.50;;;;;;;28.08;65.15;101098.95;1723856;83;21014;-43
2022/08/09 08:20:54;;;;;;;4.67;3.08;;;;;;;28.09;65.94;101105.45;1724296;83;20944;-43
2022/08/09 08:23:21;;;;;;;4.28;3.47;;;;;;;28.18;64.65;101104.37;1689496;83;21515;-43
2022/08/09 08:25:48;;;;;;;9.05;3.25;;;;;;;28.23;64.27;101100.34;1689467;85;21061;-43
2022/08/09 08:28:15;;;;;;;3.92;3.12;;;;;;;28.36;64.65;101100.66;1689509;84;21585;-43
2022/08/09 08:30:43;;;;;;;5.60;2.80;;;;;;;28.43;64.53;101100.98;1689555;84;21014;-43
2022/08/09 08:33:10;;;;;;;3.33;3.00;;;;;;;28.53;64.22;101100.55;1689578;83;20918;-43
2022/08/09 08:35:37;;;;;;;6.58;3.40;;;;;;;28.64;64.57;101097.80;1689316;85;21936;-43
2022/08/09 08:38:05;;;;;;;3.65;3.35;;;;;;;28.94;64.25;101094.00;1689523;85;20923;-43
2022/08/09 08:40:32;;;;;;;3.67;3.35;;;;;;;29.13;63.95;101095.89;1689512;85;21022;-43
2022/08/09 08:43:02;;;;;;;3.83;3.45;;;;;;;29.34;62.90;101091.84;1663883;85;21045;-43
2022/08/09 08:45:33;;;;;;;5.75;2.90;;;;;;;29.54;64.78;101089.22;1688099;85;21018;-43
2022/08/09 08:48:00;;;;;;;3.87;2.50;;;;;;;29.75;62.50;101089.61;1753842;81;21105;-43
2022/08/09 08:50:27;;;;;;;5.67;2.60;;;;;;;29.90;61.62;101089.55;1754712;81;22708;-43
2022/08/09 08:52:54;;;;;;;8.75;3.05;;;;;;;29.94;56.16;101086.12;1754704;80;20940;-44
2022/08/09 08:55:21;;;;;;;6.60;2.85;;;;;;;29.90;55.95;101084.70;1754710;81;21003;-42
2022/08/09 08:57:48;;;;;;;2.72;2.52;;;;;;;29.78;56.55;101089.33;1754826;81;20920;-42
2022/08/09 09:00:15;;;;;;;2.45;2.35;;;;;;;29.72;56.71;101088.08;1701688;81;21492;-43
2022/08/09 09:02:43;;;;;;;3.67;3.10;;;;;;;29.74;57.00;101088.78;1754794;81;20952;-42
2022/08/09 09:05:12;;;;;;;6.17;2.90;;;;;;;29.80;56.16;101083.36;1754843;79;20916;-43
2022/08/09 09:07:40;;;;;;;3.72;2.77;;;;;;;29.81;57.76;101079.23;1754667;80;20905;-43
2022/08/09 09:10:08;;;;;;;2.95;2.75;;;;;;;29.95;55.55;101076.63;1701971;81;21485;-43
2022/08/09 09:12:35;;;;;;;4.65;2.80;;;;;;;30.01;55.95;101080.60;1754906;79;21618;-43
2022/08/09 09:15:04;;;;;;;4.20;2.90;;;;;;;30.00;56.61;101075.36;1754487;81;21577;-43
2022/08/09 09:17:32;;;;;;;5.28;3.15;;;;;;;30.16;58.51;101076.15;1725555;81;21540;-43
2022/08/09 09:19:59;;;;;;;4.28;2.90;;;;;;;30.34;56.19;101075.78;1725270;81;20908;-43
2022/08/09 09:22:28;;;;;;;3.05;2.60;;;;;;;30.56;55.79;101075.58;1740458;81;20955;-43
2022/08/09 09:24:56;;;;;;;6.33;2.55;;;;;;;30.69;55.46;101073.48;1724566;81;21068;-43
2022/08/09 09:27:26;;;;;;;2.58;2.40;;;;;;;30.71;54.42;101078.69;1695788;83;21517;-43
2022/08/09 09:29:53;;;;;;;9.13;2.87;;;;;;;30.66;55.18;101077.78;1695887;83;20884;-43
2022/08/09 09:32:25;;;;;;;3.85;3.00;;;;;;;30.52;53.54;101075.88;1724565;83;21445;-43
2022/08/09 09:35:08;;;;;;;8.10;2.80;;;;;;;30.45;55.30;101071.28;1724689;83;20979;-43
2022/08/09 09:37:38;;;;;;;2.95;2.75;;;;;;;30.54;56.37;101066.40;1696648;83;21260;-43
2022/08/09 09:40:06;;;;;;;4.72;2.80;;;;;;;30.77;55.74;101062.06;1724351;81;21040;-43
2022/08/09 09:42:35;;;;;;;6.62;2.85;;;;;;;31.00;56.27;101063.03;1695527;83;20943;-43
2022/08/09 09:45:05;;;;;;;7.65;3.50;;;;;;;31.16;55.46;101056.52;1724344;83;21011;-43
2022/08/09 09:47:33;;;;;;;6.37;3.20;;;;;;;31.31;56.03;101052.88;1731838;82;20905;-44
2022/08/09 09:50:01;;;;;;;5.53;3.40;;;;;;;31.25;55.60;101060.16;1732668;82;21250;-43
2022/08/09 09:52:29;;;;;;;6.58;3.17;;;;;;;31.05;56.02;101056.23;1732365;82;20891;-43
2022/08/09 09:55:07;;;;;;;8.43;3.30;;;;;;;30.95;54.92;101062.98;1732593;82;20937;-43
2022/08/09 09:57:36;;;;;;;4.15;3.50;;;;;;;30.74;56.89;101059.69;1707009;82;21081;-43
2022/08/09 10:00:05;;;;;;;4.70;3.30;;;;;;;30.58;57.81;101057.10;1732590;81;20925;-43
2022/08/09 10:02:45;;;;;;;4.03;3.02;;;;;;;30.55;59.19;101062.73;1708553;82;21224;-43
2022/08/09 10:05:12;;;;;;;4.78;3.27;;;;;;;30.76;57.46;101057.72;1732528;81;20930;-43
2022/08/09 10:07:40;;;;;;;3.15;2.95;;;;;;;30.80;57.87;101057.25;1732541;82;20980;-43
2022/08/09 10:10:09;;;;;;;4.83;3.10;;;;;;;30.69;57.03;101054.78;1732624;82;20870;-43
2022/08/09 10:12:38;;;;;;;6.35;3.17;;;;;;;30.57;56.09;101059.91;1707626;82;21648;-43
2022/08/09 10:15:15;;;;;;;3.50;3.15;;;;;;;30.60;57.50;101060.47;1732910;82;21087;-43
2022/08/09 10:17:45;;;;;;;3.37;2.75;;;;;;;30.66;56.55;101059.91;1732645;82;21047;-43
2022/08/09 10:20:24;;;;;;;6.15;3.15;;;;;;;30.84;56.27;101071.17;1732767;82;20980;-43
2022/08/09 10:22:54;;;;;;;5.30;3.00;;;;;;;30.85;56.78;101064.84;1732751;82;21495;-43
2022/08/09 10:25:26;;;;;;;5.33;2.90;;;;;;;30.92;55.18;101064.59;1707616;82;21502;-43
2022/08/09 10:27:50;;;;;;;6.72;3.00;;;;;;;30.75;56.32;101064.88;1731860;82;21951;-43
2022/08/09 10:30:18;;;;;;;3.00;2.75;;;;;;;30.51;55.71;101057.34;1732451;82;20996;-43
2022/08/09 10:32:45;;;;;;;3.20;2.90;;;;;;;30.53;56.30;101058.04;1732550;82;20921;-43
2022/08/09 10:35:12;;;;;;;5.33;2.72;;;;;;;30.58;56.42;101059.77;1732427;81;20937;-44
2022/08/09 10:37:39;;;;;;;5.70;2.70;;;;;;;30.65;55.30;101057.41;1732636;82;20949;-43
2022/08/09 10:40:07;;;;;;;3.25;3.02;;;;;;;30.63;55.78;101052.70;1732583;82;21214;-43
2022/08/09 10:42:34;;;;;;;3.10;2.60;;;;;;;30.80;55.70;101057.25;1707772;82;20913;-44
2022/08/09 10:45:05;;;;;;;5.62;2.90;;;;;;;30.94;53.55;101057.27;1732499;81;22085;-43
2022/08/09 10:48:04;;;;;;;8.63;3.20;;;;;;;31.08;53.97;101055.09;1720263;82;20928;-43
2022/08/09 10:51:15;;;;;;;6.15;3.00;;;;;;;31.28;53.31;101055.02;1716879;83;21001;-43
2022/08/09 10:54:06;;;;;;;5.35;3.10;;;;;;;31.39;51.43;101052.98;1717098;83;21231;-43
2022/08/09 10:56:36;;;;;;;6.30;3.05;;;;;;;31.43;53.32;101050.00;1716244;83;20952;-44
2022/08/09 10:59:28;;;;;;;4.08;2.62;;;;;;;31.53;53.75;101041.40;1717203;81;20986;-43
2022/08/09 11:01:54;;;;;;;3.40;2.60;;;;;;;31.53;50.44;101042.25;1716884;83;20925;-43
2022/08/09 11:04:25;;;;;;;3.15;2.95;;;;;;;31.48;50.98;101044.55;1716839;82;20925;-44
2022/08/09 11:07:03;;;;;;;3.37;2.65;;;;;;;31.34;52.34;101043.72;1716976;82;21803;-43
2022/08/09 11:09:48;;;;;;;4.47;2.98;;;;;;;31.18;52.78;101042.51;1716978;81;20881;-43
2022/08/09 11:12:27;;;;;;;10.48;3.40;;;;;;;31.16;54.47;101042.33;1716904;83;20968;-43
2022/08/09 11:15:23;;;;;;;3.12;2.75;;;;;;;31.35;51.91;101030.70;1696750;83;20901;-43
2022/08/09 11:17:54;;;;;;;5.10;2.83;;;;;;;31.29;50.88;101039.33;1696859;82;21502;-43
2022/08/09 11:20:46;;;;;;;9.73;2.95;;;;;;;31.00;52.69;101037.13;1716930;83;21256;-43
2022/08/09 11:23:14;;;;;;;3.83;2.95;;;;;;;30.95;52.73;101033.59;1717133;83;21493;-43
2022/08/09 11:25:44;;;;;;;4.67;3.40;;;;;;;31.01;53.78;101035.31;1696627;83;20928;-43
2022/08/09 11:28:35;;;;;;;5.65;3.40;;;;;;;31.22;53.34;101033.25;1716631;83;20983;-44
2022/08/09 11:31:05;;;;;;;4.42;3.30;;;;;;;31.53;52.64;101032.89;1716983;82;20950;-43
2022/08/09 11:33:46;;;;;;;4.83;3.30;;;;;;;31.64;51.89;101030.97;1714087;83;21125;-43